Ns Challenger — A8FD6 — position and weather

sailwx.info

Track history (hours):
 
Tides and Currents Weather Stations Pressure Air Temp Water Temp Dewpoint Dewpoint Depression Visibility Wind Speed Wind Dir Waves Ship Positions

Ns Challenger

Last reported at 2018-Apr-19 09:31 UTC. Time now 2018-Apr-20 06:48 UTC.
Position N 29°10' W 078°23'.

Length 244 m; draft 8.6 m.

Type: Ship. MMSI: 636012381.

Date/timePositionNaut miles runAvg speedWind from/ knotsBaromVisibWave heightAir tempDewpointWater temp
2018-Apr-19 09:31N 29°10' W 078°23'012.7
2018-Apr-19 09:30N 29°10' W 078°23'1412.7
2018-Apr-19 08:26N 28°58' W 078°31'153 9.4
2018-Apr-18 16:15N 26°26' W 078°44'2 6.3
2018-Apr-18 15:55N 26°24' W 078°43'3 6.3
2018-Apr-18 15:30N 26°22' W 078°41'3 4.0
2018-Apr-18 14:41N 26°19' W 078°40'0 1.7
2018-Apr-18 14:30N 26°19' W 078°40'0 0.3
2018-Apr-18 14:00N 26°19' W 078°40'0 0.2
2018-Apr-18 13:26N 26°19' W 078°40'0 0.2
2018-Apr-18 13:00N 26°19' W 078°40'0 0.1
2018-Apr-18 12:30N 26°19' W 078°40'0 0.2
2018-Apr-18 12:00N 26°19' W 078°39'0 0.2
2018-Apr-18 11:30N 26°19' W 078°39'0 0.1
2018-Apr-18 11:00N 26°19' W 078°39'0 0.1
2018-Apr-18 10:30N 26°19' W 078°39'0 0.1
2018-Apr-18 09:49N 26°19' W 078°39'0 0.0
2018-Apr-18 09:28N 26°19' W 078°39'0 0.0
2018-Apr-18 09:00N 26°19' W 078°39'0 0.1
2018-Apr-18 08:29N 26°19' W 078°39'0 0.1
2018-Apr-18 07:52N 26°19' W 078°39'0 0.2
2018-Apr-18 07:22N 26°19' W 078°39'0 0.1
2018-Apr-18 07:00N 26°19' W 078°39'0 0.1
2018-Apr-18 06:30N 26°19' W 078°39'0 0.2
2018-Apr-18 05:55N 26°19' W 078°39'0 0.2
2018-Apr-18 05:06N 26°19' W 078°39'0 0.2
2018-Apr-18 05:00N 26°19' W 078°39'0 0.2
2018-Apr-18 04:30N 26°19' W 078°39'0 0.2
2018-Apr-18 03:59N 26°19' W 078°39'0 0.2
2018-Apr-18 03:28N 26°19' W 078°39'4 0.5
2018-Apr-17 17:51N 26°15' W 078°39'6 3.0
2018-Apr-17 16:00N 26°19' W 078°43'5 0.1
2018-Apr-16 02:07N 26°17' W 078°37'0 1.8
2018-Apr-16 02:00N 26°17' W 078°37'1 1.7
2018-Apr-16 01:30N 26°17' W 078°36'  
2018-Apr-10 22:51N 39°25' W 073°54'614.4
2018-Apr-10 22:24N 39°31' W 073°53'614.4
2018-Apr-10 22:00N 39°37' W 073°52'814.4
2018-Apr-10 21:25N 39°46' W 073°52'614.3
2018-Apr-10 21:00N 39°51' W 073°52'2713.6
2018-Apr-10 18:59N 40°19' W 073°49'510.9
2018-Apr-10 18:30N 40°24' W 073°48'4 7.2
2018-Apr-10 18:00N 40°26' W 073°52'5 9.0
2018-Apr-10 17:29N 40°28' W 073°58'510.1
2018-Apr-10 17:00N 40°29' W 074°04'610.7
2018-Apr-10 16:28N 40°30' W 074°11'3 3.6
2018-Apr-10 15:30N 40°32' W 074°15'4 4.5
2018-Apr-10 14:39N 40°36' W 074°12'1 4.5
2018-Apr-10 14:30N 40°36' W 074°12'2 3.3
2018-Apr-10 13:59N 40°38' W 074°12'  
Track history (hours):
 
Tides and Currents Weather Stations Pressure Air Temp Water Temp Dewpoint Dewpoint Depression Visibility Wind Speed Wind Dir Waves Ship Positions

Ns Challenger

Last reported at 2018-Apr-19 09:31 UTC. Time now 2018-Apr-20 06:48 UTC.
Position N 29°10' W 078°23'.

Length 244 m; draft 8.6 m.

Type: Ship. MMSI: 636012381.

Date/timePositionNaut miles runAvg speedWind from/ knotsBaromVisibWave heightAir tempDewpointWater temp
2018-Apr-19 09:31N 29°10' W 078°23'012.7
2018-Apr-19 09:30N 29°10' W 078°23'1412.7
2018-Apr-19 08:26N 28°58' W 078°31'153 9.4
2018-Apr-18 16:15N 26°26' W 078°44'2 6.3
2018-Apr-18 15:55N 26°24' W 078°43'3 6.3
2018-Apr-18 15:30N 26°22' W 078°41'3 4.0
2018-Apr-18 14:41N 26°19' W 078°40'0 1.7
2018-Apr-18 14:30N 26°19' W 078°40'0 0.3
2018-Apr-18 14:00N 26°19' W 078°40'0 0.2
2018-Apr-18 13:26N 26°19' W 078°40'0 0.2
2018-Apr-18 13:00N 26°19' W 078°40'0 0.1
2018-Apr-18 12:30N 26°19' W 078°40'0 0.2
2018-Apr-18 12:00N 26°19' W 078°39'0 0.2
2018-Apr-18 11:30N 26°19' W 078°39'0 0.1
2018-Apr-18 11:00N 26°19' W 078°39'0 0.1
2018-Apr-18 10:30N 26°19' W 078°39'0 0.1
2018-Apr-18 09:49N 26°19' W 078°39'0 0.0
2018-Apr-18 09:28N 26°19' W 078°39'0 0.0
2018-Apr-18 09:00N 26°19' W 078°39'0 0.1
2018-Apr-18 08:29N 26°19' W 078°39'0 0.1
2018-Apr-18 07:52N 26°19' W 078°39'0 0.2
2018-Apr-18 07:22N 26°19' W 078°39'0 0.1
2018-Apr-18 07:00N 26°19' W 078°39'0 0.1
2018-Apr-18 06:30N 26°19' W 078°39'0 0.2
2018-Apr-18 05:55N 26°19' W 078°39'0 0.2
2018-Apr-18 05:06N 26°19' W 078°39'0 0.2
2018-Apr-18 05:00N 26°19' W 078°39'0 0.2
2018-Apr-18 04:30N 26°19' W 078°39'0 0.2
2018-Apr-18 03:59N 26°19' W 078°39'0 0.2
2018-Apr-18 03:28N 26°19' W 078°39'4 0.5
2018-Apr-17 17:51N 26°15' W 078°39'6 3.0
2018-Apr-17 16:00N 26°19' W 078°43'5 0.1
2018-Apr-16 02:07N 26°17' W 078°37'0 1.8
2018-Apr-16 02:00N 26°17' W 078°37'1 1.7
2018-Apr-16 01:30N 26°17' W 078°36'  
2018-Apr-10 22:51N 39°25' W 073°54'614.4
2018-Apr-10 22:24N 39°31' W 073°53'614.4
2018-Apr-10 22:00N 39°37' W 073°52'814.4
2018-Apr-10 21:25N 39°46' W 073°52'614.3
2018-Apr-10 21:00N 39°51' W 073°52'2713.6
2018-Apr-10 18:59N 40°19' W 073°49'510.9
2018-Apr-10 18:30N 40°24' W 073°48'4 7.2
2018-Apr-10 18:00N 40°26' W 073°52'5 9.0
2018-Apr-10 17:29N 40°28' W 073°58'510.1
2018-Apr-10 17:00N 40°29' W 074°04'610.7
2018-Apr-10 16:28N 40°30' W 074°11'3 3.6
2018-Apr-10 15:30N 40°32' W 074°15'4 4.5
2018-Apr-10 14:39N 40°36' W 074°12'1 4.5
2018-Apr-10 14:30N 40°36' W 074°12'2 3.3
2018-Apr-10 13:59N 40°38' W 074°12'  

Dump ship's entire track history